createdAt,value
2018-09-02T00:01:33.956Z,10.27
2018-09-02T00:04:03.177Z,10.31
2018-09-02T00:06:32.600Z,10.35
2018-09-02T00:09:01.580Z,10.35
2018-09-02T00:11:30.768Z,10.33
2018-09-02T00:13:59.984Z,10.23
2018-09-02T00:16:29.164Z,10.24
2018-09-02T00:18:58.334Z,10.22
2018-09-02T00:21:27.680Z,10.22
2018-09-02T00:23:57.103Z,10.20
2018-09-02T00:26:26.264Z,10.15
2018-09-02T00:28:55.464Z,10.19
2018-09-02T00:31:24.680Z,10.23
2018-09-02T00:33:53.846Z,10.20
2018-09-02T00:36:23.340Z,10.14
2018-09-02T00:38:52.456Z,10.09
2018-09-02T00:41:21.684Z,10.04
2018-09-02T00:43:50.856Z,10.00
2018-09-02T00:46:20.016Z,9.99
2018-09-02T00:48:49.444Z,9.93
2018-09-02T00:51:18.669Z,9.90
2018-09-02T00:53:47.824Z,9.80
2018-09-02T00:56:17.049Z,9.87
2018-09-02T00:58:46.232Z,9.85
2018-09-02T01:01:15.485Z,9.86
2018-09-02T01:03:44.613Z,9.79
2018-09-02T01:06:14.166Z,9.72
2018-09-02T01:08:43.244Z,9.53
2018-09-02T01:11:12.436Z,9.61
2018-09-02T01:13:42.132Z,9.58
2018-09-02T01:16:11.329Z,9.60
2018-09-02T01:18:41.157Z,9.52
2018-09-02T01:21:10.580Z,9.58
2018-09-02T01:23:39.736Z,9.59
2018-09-02T01:26:08.852Z,9.57
2018-09-02T01:28:38.055Z,9.54
2018-09-02T01:31:07.488Z,9.50
2018-09-02T01:33:36.632Z,9.49
2018-09-02T01:36:06.800Z,9.51
2018-09-02T01:38:35.996Z,9.47
2018-09-02T01:41:05.138Z,9.42
2018-09-02T01:43:34.484Z,9.42
2018-09-02T01:46:03.641Z,9.43
2018-09-02T01:48:33.181Z,9.40
2018-09-02T01:51:02.805Z,9.38
2018-09-02T01:53:31.952Z,9.41
2018-09-02T01:56:01.044Z,9.39
2018-09-02T01:58:31.375Z,9.37
2018-09-02T02:01:00.465Z,9.35
2018-09-02T02:03:29.515Z,9.32
2018-09-02T02:05:58.682Z,9.31
2018-09-02T02:08:27.776Z,9.30
2018-09-02T02:10:56.995Z,9.27
2018-09-02T02:13:26.186Z,9.13
2018-09-02T02:15:55.356Z,9.16
2018-09-02T02:18:24.465Z,9.14
2018-09-02T02:20:53.680Z,9.12
2018-09-02T02:23:23.058Z,9.17
2018-09-02T02:25:52.135Z,9.21
2018-09-02T02:28:21.456Z,9.13
2018-09-02T02:30:50.504Z,9.12
2018-09-02T02:33:19.626Z,9.10
2018-09-02T02:35:49.792Z,8.97
2018-09-02T02:38:18.939Z,8.98
2018-09-02T02:40:48.071Z,8.92
2018-09-02T02:43:17.552Z,8.86
2018-09-02T02:45:46.764Z,8.93
2018-09-02T02:48:16.140Z,8.95
2018-09-02T02:50:45.689Z,8.84
2018-09-02T02:53:14.879Z,8.87
2018-09-02T02:55:44.045Z,8.92
2018-09-02T02:58:13.664Z,8.93
2018-09-02T03:00:43.096Z,8.86
2018-09-02T03:03:12.276Z,8.86
2018-09-02T03:05:41.697Z,8.82
2018-09-02T03:08:10.751Z,8.83
2018-09-02T03:10:39.851Z,8.83
2018-09-02T03:13:09.263Z,8.83
2018-09-02T03:15:38.272Z,8.87
2018-09-02T03:18:07.435Z,8.85
2018-09-02T03:20:36.989Z,8.84
2018-09-02T03:23:06.141Z,8.84
2018-09-02T03:25:35.184Z,8.81
2018-09-02T03:28:04.473Z,8.79
2018-09-02T03:30:33.657Z,8.73
2018-09-02T03:33:02.850Z,8.66
2018-09-02T03:35:33.257Z,8.66
2018-09-02T03:38:02.597Z,8.74
2018-09-02T03:40:31.808Z,8.77
2018-09-02T03:43:01.212Z,8.79
2018-09-02T03:45:30.380Z,8.83
2018-09-02T03:47:59.452Z,8.95
2018-09-02T03:50:28.864Z,9.02
2018-09-02T03:52:58.104Z,9.02
2018-09-02T03:55:27.227Z,9.05
2018-09-02T03:57:57.276Z,9.00
2018-09-02T04:00:26.357Z,9.05
2018-09-02T04:02:55.912Z,9.03
2018-09-02T04:05:26.141Z,8.99
2018-09-02T04:07:55.184Z,8.98
2018-09-02T04:10:24.277Z,8.89
2018-09-02T04:12:53.731Z,8.85
2018-09-02T04:15:22.892Z,8.81
2018-09-02T04:17:51.979Z,8.78
2018-09-02T04:20:27.253Z,8.71
2018-09-02T04:22:56.332Z,8.71
2018-09-02T04:25:25.648Z,8.69
2018-09-02T04:27:55.124Z,8.74
2018-09-02T04:30:24.288Z,8.73
2018-09-02T04:32:53.569Z,8.70
2018-09-02T04:35:23.157Z,8.62
2018-09-02T04:37:52.357Z,8.65
2018-09-02T04:40:22.128Z,8.61
2018-09-02T04:42:52.700Z,8.61
2018-09-02T04:45:21.918Z,8.63
2018-09-02T04:47:51.002Z,8.59
2018-09-02T04:50:21.376Z,8.59
2018-09-02T04:52:50.473Z,8.60
2018-09-02T04:55:19.588Z,8.62
2018-09-02T04:57:48.765Z,8.55
2018-09-02T05:00:18.035Z,8.60
2018-09-02T05:02:47.158Z,8.63
2018-09-02T05:05:16.571Z,8.66
2018-09-02T05:07:45.656Z,8.73
2018-09-02T05:10:14.732Z,8.79
2018-09-02T05:12:44.503Z,8.77
2018-09-02T05:15:13.764Z,8.90
2018-09-02T05:17:42.860Z,8.89
2018-09-02T05:20:11.977Z,8.93
2018-09-02T05:22:42.084Z,8.83
2018-09-02T05:25:11.295Z,8.74
2018-09-02T05:27:40.888Z,8.83
2018-09-02T05:30:09.971Z,8.91
2018-09-02T05:32:39.111Z,8.98
2018-09-02T05:35:08.417Z,9.04
2018-09-02T05:37:37.640Z,9.13
2018-09-02T05:40:06.761Z,9.25
2018-09-02T05:42:36.213Z,9.39
2018-09-02T05:45:05.928Z,9.52
2018-09-02T05:47:35.101Z,9.63
2018-09-02T05:50:04.592Z,9.80
2018-09-02T05:52:34.744Z,9.96
2018-09-02T05:55:03.876Z,10.16
2018-09-02T05:57:33.424Z,10.34
2018-09-02T06:00:02.495Z,10.48
2018-09-02T06:02:31.867Z,10.54
2018-09-02T06:05:02.192Z,10.35
2018-09-02T06:07:31.526Z,10.23
2018-09-02T06:10:00.728Z,10.14
2018-09-02T06:12:30.136Z,10.09
2018-09-02T06:14:59.844Z,10.19
2018-09-02T06:17:28.932Z,10.28
2018-09-02T06:19:58.352Z,10.46
2018-09-02T06:22:27.469Z,10.35
2018-09-02T06:24:56.648Z,10.46
2018-09-02T06:27:26.272Z,10.72
2018-09-02T06:29:55.441Z,10.69
2018-09-02T06:32:24.654Z,10.75
2018-09-02T06:34:53.969Z,10.49
2018-09-02T06:37:23.122Z,10.59
2018-09-02T06:39:52.532Z,10.88
2018-09-02T06:42:21.972Z,11.06
2018-09-02T06:44:51.750Z,11.04
2018-09-02T06:47:20.800Z,11.23
2018-09-02T06:49:50.256Z,11.32
2018-09-02T06:52:19.480Z,11.17
2018-09-02T06:54:48.641Z,11.22
2018-09-02T06:57:17.785Z,11.66
2018-09-02T06:59:47.752Z,11.86
2018-09-02T07:02:17.481Z,12.30
2018-09-02T07:04:46.622Z,12.47
2018-09-02T07:07:15.812Z,12.62
2018-09-02T07:09:45.788Z,12.76
2018-09-02T07:12:15.008Z,12.79
2018-09-02T07:14:44.145Z,13.13
2018-09-02T07:17:13.276Z,13.43
2018-09-02T07:19:42.777Z,13.57
2018-09-02T07:22:11.960Z,13.70
2018-09-02T07:24:41.084Z,13.46
2018-09-02T07:27:10.300Z,13.41
2018-09-02T07:29:40.420Z,13.68
2018-09-02T07:32:09.706Z,13.89
2018-09-02T07:34:39.432Z,14.16
2018-09-02T07:37:08.613Z,14.28
2018-09-02T07:39:37.809Z,14.37
2018-09-02T07:42:07.542Z,14.48
2018-09-02T07:44:36.686Z,14.27
2018-09-02T07:47:06.220Z,14.25
2018-09-02T07:49:35.317Z,14.15
2018-09-02T07:52:04.548Z,14.13
2018-09-02T07:54:33.741Z,14.14
2018-09-02T07:57:03.234Z,14.12
2018-09-02T07:59:33.619Z,14.09
2018-09-02T08:02:02.764Z,14.15
2018-09-02T08:04:32.219Z,14.19
2018-09-02T08:07:01.356Z,14.21
2018-09-02T08:09:30.537Z,14.22
2018-09-02T08:12:00.377Z,14.29
2018-09-02T08:14:30.292Z,14.41
2018-09-02T08:16:59.460Z,14.52
2018-09-02T08:19:29.288Z,14.75
2018-09-02T08:21:58.296Z,14.87
2018-09-02T08:24:28.204Z,15.03
2018-09-02T08:26:57.228Z,15.04
2018-09-02T08:29:26.492Z,15.24
2018-09-02T08:31:55.916Z,15.43
2018-09-02T08:34:25.061Z,15.66
2018-09-02T08:36:54.145Z,15.78
2018-09-02T08:39:23.182Z,15.85
2018-09-02T08:41:52.592Z,15.96
2018-09-02T08:44:21.857Z,16.01
2018-09-02T08:46:50.912Z,16.12
2018-09-02T08:49:20.040Z,16.10
2018-09-02T08:51:49.122Z,16.00
2018-09-02T08:54:19.209Z,16.25
2018-09-02T08:56:48.967Z,16.43
2018-09-02T08:59:18.176Z,16.57
2018-09-02T09:01:47.477Z,16.44
2018-09-02T09:04:16.600Z,16.59
2018-09-02T09:06:45.644Z,16.85
2018-09-02T09:09:15.693Z,16.81
2018-09-02T09:11:45.077Z,16.48
2018-09-02T09:14:14.516Z,16.58
2018-09-02T09:16:43.660Z,17.04
2018-09-02T09:19:14.348Z,16.89
2018-09-02T09:21:43.612Z,16.93
2018-09-02T09:24:13.921Z,17.03
2018-09-02T09:26:43.372Z,17.28
2018-09-02T09:29:12.523Z,17.73
2018-09-02T09:31:41.643Z,18.12
2018-09-02T09:34:12.185Z,18.57
2018-09-02T09:36:41.365Z,19.04
2018-09-02T09:39:11.462Z,19.28
2018-09-02T09:41:40.980Z,18.52
2018-09-02T09:44:10.176Z,18.27
2018-09-02T09:46:39.364Z,18.58
2018-09-02T09:49:10.674Z,18.54
2018-09-02T09:51:40.278Z,18.59
2018-09-02T09:54:09.407Z,18.53
2018-09-02T09:56:38.872Z,18.64
2018-09-02T09:59:07.936Z,18.86
2018-09-02T10:01:36.963Z,19.00
2018-09-02T10:04:06.741Z,19.31
2018-09-02T10:06:35.837Z,19.36
2018-09-02T10:09:12.717Z,19.85
2018-09-02T10:11:42.677Z,20.37
2018-09-02T10:14:13.340Z,20.96
2018-09-02T10:16:42.661Z,20.74
2018-09-02T10:19:12.868Z,20.90
2018-09-02T10:21:43.602Z,21.60
2018-09-02T10:24:14.937Z,22.37
2018-09-02T10:26:44.152Z,21.51
2018-09-02T10:29:14.484Z,21.50
2018-09-02T10:31:44.127Z,21.40
2018-09-02T10:34:13.240Z,21.73
2018-09-02T10:36:42.333Z,21.94
2018-09-02T10:39:13.355Z,21.92
2018-09-02T10:41:42.516Z,22.19
2018-09-02T10:44:11.720Z,22.36
2018-09-02T10:46:41.260Z,21.64
2018-09-02T10:49:10.268Z,21.43
2018-09-02T10:51:39.393Z,21.43
2018-09-02T10:54:10.564Z,20.83
2018-09-02T10:56:39.995Z,21.07
2018-09-02T10:59:09.296Z,20.10
2018-09-02T11:01:41.963Z,20.36
2018-09-02T11:04:12.574Z,20.41
2018-09-02T11:06:41.640Z,19.87
2018-09-02T11:09:13.092Z,19.78
2018-09-02T11:11:42.348Z,19.39
2018-09-02T11:14:11.536Z,19.34
2018-09-02T11:16:41.305Z,19.28
2018-09-02T11:19:11.015Z,19.09
2018-09-02T11:21:40.899Z,19.30
2018-09-02T11:24:10.269Z,18.55
2018-09-02T11:26:39.410Z,18.39
2018-09-02T11:29:08.549Z,18.17
2018-09-02T11:31:38.441Z,18.14
2018-09-02T11:34:07.866Z,18.21
2018-09-02T11:36:36.948Z,17.98
2018-09-02T11:39:10.253Z,18.26
2018-09-02T11:41:39.468Z,18.30
2018-09-02T11:44:09.302Z,18.12
2018-09-02T11:46:38.972Z,18.38
2018-09-02T11:49:08.824Z,18.57
2018-09-02T11:51:37.981Z,18.74
2018-09-02T11:54:08.704Z,18.53
2018-09-02T11:56:38.560Z,18.30
2018-09-02T11:59:07.860Z,18.39
2018-09-02T12:01:38.036Z,18.48
2018-09-02T12:04:07.958Z,18.49
2018-09-02T12:06:37.863Z,18.54
2018-09-02T12:09:09.612Z,18.40
2018-09-02T12:11:39.300Z,18.41
2018-09-02T12:14:08.440Z,18.99
2018-09-02T12:16:37.669Z,18.86
2018-09-02T12:19:08.196Z,19.02
2018-09-02T12:21:37.344Z,18.99
2018-09-02T12:24:07.824Z,18.96
2018-09-02T12:26:37.812Z,19.14
2018-09-02T12:29:07.780Z,18.83
2018-09-02T12:31:36.888Z,18.73
2018-09-02T12:34:07.029Z,18.78
2018-09-02T12:36:36.067Z,18.88
2018-09-02T12:39:06.156Z,19.42
2018-09-02T12:41:35.677Z,19.96
2018-09-02T12:44:05.008Z,20.27
2018-09-02T12:46:34.613Z,20.26
2018-09-02T12:49:04.121Z,19.84
2018-09-02T12:51:33.244Z,19.83
2018-09-02T12:54:02.535Z,19.65
2018-09-02T12:56:31.960Z,19.64
2018-09-02T12:59:01.168Z,19.99
2018-09-02T13:01:31.165Z,19.44
2018-09-02T13:04:01.852Z,19.51
2018-09-02T13:06:32.396Z,19.37
2018-09-02T13:09:02.277Z,19.65
2018-09-02T13:11:33.200Z,19.26
2018-09-02T13:14:03.119Z,19.64
2018-09-02T13:16:33.051Z,20.19
2018-09-02T13:19:04.441Z,20.25
2018-09-02T13:21:34.718Z,20.31
2018-09-02T13:24:06.769Z,19.92
2018-09-02T13:26:36.186Z,19.84
2018-09-02T13:29:06.896Z,19.89
2018-09-02T13:31:38.287Z,19.45
2018-09-02T13:34:08.854Z,19.61
2018-09-02T13:36:37.964Z,19.71
2018-09-02T13:39:09.124Z,19.90
2018-09-02T13:41:38.500Z,19.60
2018-09-02T13:44:09.811Z,19.42
2018-09-02T13:46:39.392Z,19.70
2018-09-02T13:49:10.232Z,19.49
2018-09-02T13:51:39.782Z,19.64
2018-09-02T13:54:09.036Z,19.60
2018-09-02T13:56:38.188Z,19.49
2018-09-02T13:59:08.148Z,19.64
2018-09-02T14:01:37.316Z,19.64
2018-09-02T14:04:07.276Z,19.85
2018-09-02T14:06:37.544Z,19.76
2018-09-02T14:09:08.700Z,19.56
2018-09-02T14:11:38.368Z,19.39
2018-09-02T14:14:10.167Z,19.69
2018-09-02T14:16:40.841Z,19.65
2018-09-02T14:19:11.940Z,19.82
2018-09-02T14:21:42.532Z,19.89
2018-09-02T14:24:13.086Z,19.72
2018-09-02T14:26:43.120Z,19.85
2018-09-02T14:29:12.160Z,19.73
2018-09-02T14:31:41.300Z,19.30
2018-09-02T14:34:12.810Z,19.56
2018-09-02T14:36:41.928Z,19.47
2018-09-02T14:39:12.983Z,19.32
2018-09-02T14:41:42.525Z,19.24
2018-09-02T14:44:12.640Z,19.37
2018-09-02T14:46:41.659Z,19.12
2018-09-02T14:49:11.902Z,18.97
2018-09-02T14:51:41.951Z,18.94
2018-09-02T14:54:12.004Z,18.88
2018-09-02T14:56:41.959Z,18.99
2018-09-02T14:59:13.069Z,18.98
2018-09-02T15:01:42.948Z,19.04
2018-09-02T15:04:12.656Z,19.08
2018-09-02T15:06:41.893Z,19.08
2018-09-02T15:09:12.017Z,18.91
2018-09-02T15:11:41.208Z,19.04
2018-09-02T15:14:10.745Z,18.82
2018-09-02T15:16:39.916Z,18.87
2018-09-02T15:19:09.467Z,18.85
2018-09-02T15:21:38.568Z,19.10
2018-09-02T15:24:10.800Z,18.98
2018-09-02T15:26:40.872Z,18.85
2018-09-02T15:29:10.047Z,18.94
2018-09-02T15:31:40.171Z,19.13
2018-09-02T15:34:11.312Z,19.22
2018-09-02T15:36:40.404Z,18.95
2018-09-02T15:39:10.996Z,19.12
2018-09-02T15:41:41.068Z,19.28
2018-09-02T15:44:11.023Z,19.27
2018-09-02T15:46:40.088Z,18.93
2018-09-02T15:49:09.690Z,18.87
2018-09-02T15:51:38.896Z,18.73
2018-09-02T15:54:07.965Z,18.92
2018-09-02T15:56:37.100Z,19.06
2018-09-02T15:59:07.233Z,19.07
2018-09-02T16:01:37.445Z,18.89
2018-09-02T16:04:07.024Z,18.90
2018-09-02T16:06:36.233Z,18.83
2018-09-02T16:09:09.004Z,18.87
2018-09-02T16:11:38.348Z,18.79
2018-09-02T16:14:08.348Z,18.83
2018-09-02T16:16:38.540Z,18.81
2018-09-02T16:19:08.236Z,18.98
2018-09-02T16:21:37.311Z,18.95
2018-09-02T16:24:07.097Z,18.78
2018-09-02T16:26:36.238Z,18.91
2018-09-02T16:29:05.408Z,18.78
2018-09-02T16:31:34.596Z,18.74
2018-09-02T16:34:03.757Z,18.62
2018-09-02T16:36:32.852Z,18.77
2018-09-02T16:39:02.640Z,18.70
2018-09-02T16:41:31.812Z,18.75
2018-09-02T16:44:01.850Z,18.52
2018-09-02T16:46:31.004Z,18.45
2018-09-02T16:49:00.104Z,18.52
2018-09-02T16:51:29.297Z,18.50
2018-09-02T16:53:59.504Z,18.39
2018-09-02T16:56:29.495Z,18.45
2018-09-02T16:58:58.760Z,18.33
2018-09-02T17:01:28.005Z,18.45
2018-09-02T17:04:01.333Z,18.56
2018-09-02T17:06:30.496Z,18.44
2018-09-02T17:08:59.696Z,18.34
2018-09-02T17:11:29.584Z,18.35
2018-09-02T17:13:59.806Z,18.41
2018-09-02T17:16:28.945Z,18.47
2018-09-02T17:19:03.932Z,18.11
2018-09-02T17:21:33.143Z,18.14
2018-09-02T17:24:04.124Z,18.22
2018-09-02T17:26:33.265Z,18.25
2018-09-02T17:29:02.368Z,18.05
2018-09-02T17:31:31.432Z,18.07
2018-09-02T17:34:00.568Z,17.90
2018-09-02T17:36:31.404Z,18.06
2018-09-02T17:39:02.416Z,18.07
2018-09-02T17:41:31.556Z,18.06
2018-09-02T17:44:00.580Z,17.83
2018-09-02T17:46:29.760Z,17.84
2018-09-02T17:49:00.658Z,17.87
2018-09-02T17:51:29.956Z,18.00
2018-09-02T17:53:59.300Z,17.81
2018-09-02T17:56:28.628Z,17.85
2018-09-02T17:58:57.808Z,17.99
2018-09-02T18:01:27.118Z,17.88
2018-09-02T18:03:56.282Z,17.84
2018-09-02T18:06:25.762Z,17.61
2018-09-02T18:08:54.958Z,17.63
2018-09-02T18:11:24.167Z,17.62
2018-09-02T18:13:53.410Z,17.71
2018-09-02T18:16:22.551Z,17.64
2018-09-02T18:18:51.776Z,17.62
2018-09-02T18:21:21.296Z,17.50
2018-09-02T18:23:52.961Z,17.63
2018-09-02T18:26:22.776Z,17.61
2018-09-02T18:28:52.125Z,17.45
2018-09-02T18:31:21.332Z,17.64
2018-09-02T18:33:50.527Z,17.57
2018-09-02T18:36:20.454Z,17.57
2018-09-02T18:38:50.658Z,17.47
2018-09-02T18:41:19.758Z,17.40
2018-09-02T18:43:49.153Z,17.46
2018-09-02T18:46:18.448Z,17.64
2018-09-02T18:48:47.589Z,17.47
2018-09-02T18:51:17.876Z,17.44
2018-09-02T18:53:46.968Z,17.44
2018-09-02T18:56:16.020Z,17.39
2018-09-02T18:58:46.137Z,17.35
2018-09-02T19:01:15.302Z,17.32
2018-09-02T19:03:45.017Z,17.28
2018-09-02T19:06:14.033Z,17.20
2018-09-02T19:08:43.156Z,17.25
2018-09-02T19:11:13.249Z,17.31
2018-09-02T19:13:44.045Z,17.25
2018-09-02T19:16:13.376Z,17.23
2018-09-02T19:18:44.131Z,17.32
2018-09-02T19:21:14.313Z,17.50
2018-09-02T19:23:44.163Z,17.22
2018-09-02T19:26:13.397Z,17.25
2018-09-02T19:28:43.152Z,17.07
2018-09-02T19:31:12.176Z,17.15
2018-09-02T19:33:41.324Z,17.18
2018-09-02T19:36:10.768Z,17.10
2018-09-02T19:38:40.073Z,17.12
2018-09-02T19:41:09.229Z,17.00
2018-09-02T19:43:38.351Z,17.03
2018-09-02T19:46:07.472Z,17.05
2018-09-02T19:48:37.333Z,16.96
2018-09-02T19:51:07.436Z,16.99
2018-09-02T19:53:38.332Z,16.91
2018-09-02T19:56:07.540Z,16.94
2018-09-02T19:58:38.091Z,16.96
2018-09-02T20:01:08.179Z,16.99
2018-09-02T20:03:37.820Z,16.99
2018-09-02T20:06:13.300Z,16.99
2018-09-02T20:08:43.200Z,16.91
2018-09-02T20:11:12.352Z,16.95
2018-09-02T20:13:43.028Z,16.96
2018-09-02T20:16:13.332Z,17.04
2018-09-02T20:18:45.954Z,16.88
2018-09-02T20:21:15.030Z,16.88
2018-09-02T20:23:46.280Z,16.82
2018-09-02T20:26:15.616Z,16.84
2018-09-02T20:28:46.596Z,17.01
2018-09-02T20:31:16.403Z,16.96
2018-09-02T20:33:47.949Z,16.97
2018-09-02T20:36:17.892Z,16.89
2018-09-02T20:38:48.656Z,16.92
2018-09-02T20:41:17.840Z,16.94
2018-09-02T20:43:47.020Z,16.91
2018-09-02T20:46:16.252Z,16.96
2018-09-02T20:48:45.316Z,16.92
2018-09-02T20:51:14.508Z,16.88
2018-09-02T20:53:44.560Z,16.82
2018-09-02T20:56:14.729Z,17.00
2018-09-02T20:58:44.259Z,17.02
2018-09-02T21:01:13.408Z,17.03
2018-09-02T21:03:43.329Z,16.76
2018-09-02T21:06:12.976Z,16.74
2018-09-02T21:08:42.404Z,16.83
2018-09-02T21:11:12.444Z,16.85
2018-09-02T21:13:43.208Z,16.86
2018-09-02T21:16:12.816Z,16.91
2018-09-02T21:18:42.080Z,16.98
2018-09-02T21:21:12.057Z,16.95
2018-09-02T21:23:43.231Z,16.94
2018-09-02T21:26:13.040Z,17.00
2018-09-02T21:28:43.100Z,17.00
2018-09-02T21:31:13.964Z,16.96
2018-09-02T21:33:44.030Z,16.95
2018-09-02T21:36:13.276Z,16.90
2018-09-02T21:38:42.584Z,16.86
2018-09-02T21:41:11.821Z,16.70
2018-09-02T21:43:41.592Z,16.85
2018-09-02T21:46:10.687Z,16.75
2018-09-02T21:48:40.170Z,16.84
2018-09-02T21:51:09.256Z,16.92
2018-09-02T21:53:38.328Z,16.86
2018-09-02T21:56:07.632Z,16.74
2018-09-02T21:58:37.823Z,16.67
2018-09-02T22:01:06.984Z,16.73
2018-09-02T22:03:36.075Z,16.72
2018-09-02T22:06:05.373Z,16.80
2018-09-02T22:08:35.493Z,16.82
2018-09-02T22:11:05.212Z,16.79
2018-09-02T22:13:34.907Z,16.74
2018-09-02T22:16:04.031Z,16.75
2018-09-02T22:18:33.419Z,16.64
2018-09-02T22:21:02.633Z,16.74
2018-09-02T22:23:31.699Z,16.83
2018-09-02T22:26:00.801Z,16.83
2018-09-02T22:28:29.946Z,17.09
2018-09-02T22:30:59.133Z,17.09
2018-09-02T22:33:28.498Z,17.01
2018-09-02T22:35:57.560Z,16.99
2018-09-02T22:38:26.649Z,16.76
2018-09-02T22:40:55.824Z,16.83
2018-09-02T22:43:26.435Z,16.96
2018-09-02T22:45:55.624Z,17.02
2018-09-02T22:48:24.860Z,17.01
2018-09-02T22:50:53.932Z,17.10
2018-09-02T22:53:23.101Z,17.09
2018-09-02T22:55:52.208Z,17.10
2018-09-02T22:58:21.872Z,17.13
2018-09-02T23:00:51.145Z,16.89
2018-09-02T23:03:20.656Z,16.81
2018-09-02T23:05:49.904Z,16.78
2018-09-02T23:08:19.892Z,16.65
2018-09-02T23:10:49.239Z,16.72
2018-09-02T23:13:19.816Z,16.82
2018-09-02T23:15:49.692Z,16.92
2018-09-02T23:18:18.892Z,16.95
2018-09-02T23:20:48.572Z,16.97
2018-09-02T23:23:19.036Z,16.96
2018-09-02T23:25:48.198Z,16.97
2018-09-02T23:28:18.364Z,16.98
2018-09-02T23:30:47.864Z,17.05
2018-09-02T23:33:17.054Z,17.11
2018-09-02T23:35:46.060Z,17.05
2018-09-02T23:38:15.108Z,16.96
2018-09-02T23:40:44.232Z,16.94
2018-09-02T23:43:13.508Z,17.01
2018-09-02T23:45:43.444Z,17.01
2018-09-02T23:48:12.632Z,16.99
2018-09-02T23:50:41.861Z,16.98
2018-09-02T23:53:10.940Z,17.04
2018-09-02T23:55:39.936Z,16.97
2018-09-02T23:58:09.104Z,16.83
